Hovedside
METAR-TAF:

METAR-TAF

Lufthavner :

Mitiga International Airport

Tripoli, Libya

breddegrad: 32-54N, lengdegrad: 13-17E, høyde over havet: 11 m

METAR: fraværende

Tid: 10:37 (08:37 UTC)

Varsel

Denne rapporten ble laget for 3 timer og 37 minutter siden, klokken 05:00 UTC
Varsel gyldig fra 13. klokken 06 UTC til 14. klokken 06 UTC
Vind 15 kt fra Sør-sørvest
Sikt: 8000 m
Spredte skyer i en høyde av 2500 ft
Blir
fra 13. klokken 10 UTC til 13. klokken 12 UTC
Vind 15 kt fra Vest

TAF: HLLM 130500Z 1306/1406 21015KT 8000 SCT025 BECMG 1310/1312 27015KT

Værobservasjoner og værvarsel for over 4000 flyplasser (METAR- og TAF-rapporter).

Tilgjengelige stasjoner er representert av de røde og gule prikkene på kartet.

Hold musepekeren over prikken for å se navnet på stasjonen.

Klikk så for å se værobservasjoner og -varsler.

For å forandre kartet kan du klikke på den grønne knappen med svart kryss for å zoome inn, på den grønne knappen med strek for å zoome ut, eller på de grønne pilene for å se tilstøtende kart.


METAR-TAF: